ENRS/RET METAR and TAF weather

Enter ICAO airport designator
Station Type Date Time Source
ENRS METAR 2019/10/18 07:20 UTC NOAA

ENRS 180720Z 05005KT 9999 FEW015 BKN033 07/04 Q1005


Station Type Date Time Source
ENRS Decoded METAR 2019/10/18 07:20 UTC NOAA

Rost Flyplass, Norway (ENRS) 67-31N 012-06E
Oct 18, 2019 - 03:20 AM EDT / 2019.10.18 0720 UTC
Wind: from the NE (050 degrees) at 6 MPH (5 KT):0
Visibility: greater than 7 mile(s):0
Sky conditions: mostly cloudy
Temperature: 44 F (7 C)
Dew Point: 39 F (4 C)
Relative Humidity: 81%
Pressure (altimeter): 29.68 in. Hg (1005 hPa)
ob: ENRS 180720Z 05005KT 9999 FEW015 BKN033 07/04 Q1005
cycle: 7

Station Type Date Time Source
ENRS TAF UTC NOAA

Error!

Example: see airport list